Georgetown, SC

1:27 PM EDT on July 30, 2014 (GMT -0400)
Georgetown County (KGGE) Elev 39 ft | 33.31 °N, 79.32 °W | Change Station

Current weather conditions updated 12 minutes ago

Mostly Cloudy
Mostly Cloudy
82 °F
Feels Like 86 °F
N
9
Wind Variable Wind from ESE

Today is forecast to be Cooler than yesterday.

Today
High -- | Low -- °F
--% Chance of Precip.
Yesterday
High -- | Low -- °F
Precip. -- in
6:28 AM 8:18 PM
Waxing Crescent, 12% visible
Pressure 30.04 in
Visibility 10.0 miles
Clouds Scattered Clouds 3600 ft
Scattered Clouds 4200 ft
Mostly Cloudy 8500 ft
Heat Index 86 °F
Dew Point 70 °F
Humidity 66%
Rainfall 0.00 in
Snow Depth Not available.
UV 7 out of 12
Pollen 4.20 out of 12
Air Quality Not available.
Flu Activity Not available.
METAR KGGE 301715Z AUTO 11008KT 10SM SCT036 SCT042 BKN085 28/21 A3004 RMK AO2

More Conditions Fewer Conditions

Pressure 30.04 in
Visibility 10.0 miles
Clouds Scattered Clouds 3600 ft
Scattered Clouds 4200 ft
Mostly Cloudy 8500 ft
Heat Index 86 °F
Dew Point 70 °F
Humidity 66%
Rainfall 0.00 in
Snow Depth Not available.
UV 7 out of 12
Pollen 4.20 out of 12
Air Quality Not available.
Flu Activity Not available.
METAR KGGE 301715Z AUTO 11008KT 10SM SCT036 SCT042 BKN085 28/21 A3004 RMK AO2

More Conditions Fewer Conditions

10-Day Weather Forecast

Almanac

Astronomy

Jul. 30, 2014 Rise Set
Actual Time 6:28 AM EDT 8:18 PM EDT
Civil Twilight 6:01 AM EDT 8:45 PM EDT
Nautical Twilight 5:28 AM EDT 9:18 PM EDT
Astronomical Twilight 4:53 AM EDT 9:53 PM EDT
Moon 9:45 AM EDT 10:14 PM EDT
Length of Visible Light 14h 44m
Length of Day
13h 49m
Tomorrow will be 1m 30s shorter.
Waxing Crescent, 12% of the Moon is Illuminated
Today
Waxing Crescent
Aug 3
First Quarter
Aug 10
Full
Aug 17
Last Quarter
Aug 25
New

Today's Extremes

State Highs State Lows

Community

WunderPhotos

Upload Photos

1,739,138 photos uploaded!

Nearby

Snow Depth

Station Depth Elevation
No new snow has been reported.

Earthquake Activity

City Distance Mag. Time & Date
No recent earthquake activity has been reported nearby.
Minimum magnitude displayed is 2.5.

Coastal Water Temperatures

Place Temperature
Springmaid Pier, SC 84.0 °F

Nearby Weather Stations

Station Location Temp. Heat Index Dew Point Humidity Wind Precip. Elev Updated Type
Spring Gully, Georgetown, SC 83.2 °F 89 °F 72 °F 70% ESE  at  1.0 mph 0.00 in / hr 20 ft 1:15 PM EDT Normal
Debordieu, Georgetown, SC 81.8 °F 85 °F 69 °F 66% East  at  1.0 mph 0.00 in / hr 36 ft 1:21 PM EDT Normal
Litchfield Beach, Pawleys Island, SC 82.2 °F 85 °F 68 °F 63% North  at  0.0 mph 0.00 in / hr 10 ft 1:27 PM EDT Rapid Fire
Palm Bay, Murrells Inlet, SC 87.1 °F 95 °F 74 °F 65% East  at  7.0 mph 0.00 in / hr 18 ft 1:27 PM EDT Rapid Fire
Earthworks Group, Inc., Murrells Inlet, SC 83.6 °F 87 °F 69 °F 61% East  at  2.0 mph 0.00 in / hr 21 ft 1:26 PM EDT Normal

Show More Stations Show Fewer Stations